createdAt,value
2017-05-16T00:00:13.411Z,994.5
2017-05-16T00:01:15.830Z,994.5
2017-05-16T00:02:18.157Z,994.6
2017-05-16T00:03:20.556Z,994.5
2017-05-16T00:04:22.857Z,994.5
2017-05-16T00:05:25.203Z,994.5
2017-05-16T00:06:27.510Z,994.5
2017-05-16T00:07:29.937Z,994.5
2017-05-16T00:08:32.363Z,994.5
2017-05-16T00:09:34.698Z,994.5
2017-05-16T00:10:37.009Z,994.5
2017-05-16T00:11:39.369Z,994.5
2017-05-16T00:12:41.782Z,994.5
2017-05-16T00:13:44.239Z,994.5
2017-05-16T00:14:46.610Z,994.4
2017-05-16T00:15:49.275Z,994.2
2017-05-16T00:16:51.653Z,994.5
2017-05-16T00:17:53.996Z,994.4
2017-05-16T00:18:56.803Z,994.5
2017-05-16T00:19:59.149Z,994.4
2017-05-16T00:21:01.512Z,994.4
2017-05-16T00:22:03.851Z,994.4
2017-05-16T00:23:06.144Z,994.3
2017-05-16T00:24:08.478Z,994.4
2017-05-16T00:25:10.840Z,994.4
2017-05-16T00:26:13.175Z,994.3
2017-05-16T00:27:15.536Z,994.4
2017-05-16T00:28:17.882Z,994.3
2017-05-16T00:29:20.248Z,994.4
2017-05-16T00:30:22.588Z,994.3
2017-05-16T00:31:24.890Z,994.4
2017-05-16T00:32:27.208Z,994.3
2017-05-16T00:33:29.549Z,994.4
2017-05-16T00:34:31.864Z,994.3
2017-05-16T00:36:45.444Z,994.3
2017-05-16T00:37:47.769Z,994.3
2017-05-16T00:38:50.103Z,994.3
2017-05-16T00:39:52.458Z,994.2
2017-05-16T00:40:54.830Z,994.3
2017-05-16T00:41:57.171Z,994.2
2017-05-16T00:42:59.501Z,994.2
2017-05-16T00:44:01.856Z,994.2
2017-05-16T00:45:04.188Z,994.2
2017-05-16T00:46:06.543Z,994.2
2017-05-16T00:47:08.904Z,994.2
2017-05-16T00:48:11.867Z,994.2
2017-05-16T00:49:14.310Z,994.1
2017-05-16T00:50:16.687Z,994.1
2017-05-16T00:51:19.047Z,994.1
2017-05-16T00:52:21.448Z,994.1
2017-05-16T00:53:23.944Z,994.1
2017-05-16T00:54:26.286Z,994.1
2017-05-16T00:55:28.634Z,994.1
2017-05-16T00:56:31.666Z,994.1
2017-05-16T00:57:34.064Z,994
2017-05-16T00:58:36.384Z,994.1
2017-05-16T00:59:38.780Z,994.1
2017-05-16T01:00:41.085Z,994
2017-05-16T01:01:43.411Z,994.1
2017-05-16T01:02:45.739Z,994.1
2017-05-16T01:03:48.625Z,994.1
2017-05-16T01:04:51.004Z,994.1
2017-05-16T01:05:53.502Z,994.1
2017-05-16T01:06:55.851Z,994.1
2017-05-16T01:07:58.211Z,994.1
2017-05-16T01:09:00.612Z,994.1
2017-05-16T01:10:02.958Z,994.2
2017-05-16T01:11:05.348Z,994.1
2017-05-16T01:12:07.639Z,994.1
2017-05-16T01:13:09.940Z,994.1
2017-05-16T01:14:12.262Z,994.1
2017-05-16T01:15:14.864Z,994.2
2017-05-16T01:16:17.292Z,994.1
2017-05-16T01:17:19.610Z,994.1
2017-05-16T01:18:21.989Z,994.1
2017-05-16T01:19:24.330Z,994.1
2017-05-16T01:20:26.721Z,994.1
2017-05-16T01:21:29.134Z,994.2
2017-05-16T01:22:31.492Z,994.2
2017-05-16T01:23:34.581Z,994.2
2017-05-16T01:24:36.976Z,994.2
2017-05-16T01:25:39.369Z,994.2
2017-05-16T01:26:41.666Z,994.2
2017-05-16T01:27:43.990Z,994.2
2017-05-16T01:28:46.298Z,994.1
2017-05-16T01:29:48.696Z,994.1
2017-05-16T01:30:51.074Z,994.2
2017-05-16T01:31:53.420Z,994.2
2017-05-16T01:32:55.781Z,994.2
2017-05-16T01:33:58.183Z,994.2
2017-05-16T01:35:00.591Z,994.1
2017-05-16T01:36:02.967Z,994.2
2017-05-16T01:37:05.279Z,994.1
2017-05-16T01:38:07.948Z,994.1
2017-05-16T01:39:10.295Z,994.1
2017-05-16T01:40:12.638Z,994.1
2017-05-16T01:41:15.086Z,994.1
2017-05-16T01:42:17.398Z,994.1
2017-05-16T01:43:19.723Z,994.1
2017-05-16T01:44:22.088Z,994.1
2017-05-16T01:45:24.392Z,994.1
2017-05-16T01:46:26.890Z,994.1
2017-05-16T01:47:29.273Z,994.1
2017-05-16T01:48:31.663Z,994.1
2017-05-16T01:49:34.038Z,994.1
2017-05-16T01:50:36.408Z,994.1
2017-05-16T01:51:38.791Z,994.1
2017-05-16T01:52:41.147Z,994.1
2017-05-16T01:53:43.448Z,994
2017-05-16T01:54:45.774Z,994
2017-05-16T01:55:48.150Z,994.1
2017-05-16T01:56:50.531Z,994
2017-05-16T01:57:52.859Z,994
2017-05-16T01:58:55.187Z,994
2017-05-16T01:59:57.611Z,994
2017-05-16T02:00:59.950Z,994
2017-05-16T02:02:02.361Z,994
2017-05-16T02:03:04.715Z,994
2017-05-16T02:04:07.000Z,994
2017-05-16T02:05:09.346Z,993.9
2017-05-16T02:06:11.727Z,994
2017-05-16T02:07:14.068Z,994
2017-05-16T02:08:16.454Z,994
2017-05-16T02:09:18.811Z,994
2017-05-16T02:10:21.136Z,994
2017-05-16T02:11:23.494Z,994
2017-05-16T02:12:25.861Z,994
2017-05-16T02:13:28.219Z,994
2017-05-16T02:14:30.601Z,994
2017-05-16T02:15:32.957Z,993.9
2017-05-16T02:16:35.338Z,994
2017-05-16T02:17:37.954Z,993.9
2017-05-16T02:18:40.492Z,994
2017-05-16T02:19:42.802Z,994
2017-05-16T02:20:45.113Z,994
2017-05-16T02:21:47.453Z,994
2017-05-16T02:22:49.865Z,994
2017-05-16T02:23:52.202Z,993.9
2017-05-16T02:24:54.505Z,994
2017-05-16T02:25:56.811Z,994
2017-05-16T02:26:59.169Z,994
2017-05-16T02:28:01.601Z,994
2017-05-16T02:29:03.969Z,994.1
2017-05-16T02:30:06.318Z,994.1
2017-05-16T02:31:08.942Z,994.1
2017-05-16T02:32:11.355Z,994.1
2017-05-16T02:33:13.791Z,994
2017-05-16T02:34:16.684Z,993.5
2017-05-16T02:35:19.119Z,994
2017-05-16T02:36:21.492Z,994
2017-05-16T02:37:23.816Z,994.1
2017-05-16T02:38:26.150Z,994
2017-05-16T02:39:28.460Z,994.1
2017-05-16T02:40:30.855Z,994
2017-05-16T02:41:33.198Z,994
2017-05-16T02:42:35.527Z,994.1
2017-05-16T02:43:37.895Z,994
2017-05-16T02:44:40.237Z,994
2017-05-16T02:45:42.661Z,994
2017-05-16T02:46:44.987Z,994
2017-05-16T02:47:47.305Z,994
2017-05-16T02:48:49.698Z,994
2017-05-16T02:49:52.044Z,994
2017-05-16T02:50:54.320Z,994
2017-05-16T02:51:56.662Z,994
2017-05-16T02:52:59.046Z,994
2017-05-16T02:54:01.405Z,994
2017-05-16T02:55:03.697Z,994
2017-05-16T02:56:06.025Z,994
2017-05-16T02:57:08.354Z,994
2017-05-16T02:58:10.699Z,994
2017-05-16T02:59:13.065Z,994
2017-05-16T03:00:15.374Z,994
2017-05-16T03:01:17.675Z,994
2017-05-16T03:02:20.059Z,994
2017-05-16T03:03:22.374Z,994
2017-05-16T03:04:24.724Z,994
2017-05-16T03:05:27.127Z,994
2017-05-16T03:06:29.450Z,993.9
2017-05-16T03:07:31.861Z,993.9
2017-05-16T03:08:34.218Z,993.9
2017-05-16T03:09:36.548Z,993.9
2017-05-16T03:10:38.958Z,993.9
2017-05-16T03:11:41.281Z,993.9
2017-05-16T03:12:43.612Z,993.9
2017-05-16T03:13:45.971Z,993.9
2017-05-16T03:14:48.681Z,993.9
2017-05-16T03:15:51.023Z,993.9
2017-05-16T03:16:53.386Z,993.9
2017-05-16T03:17:55.745Z,993.9
2017-05-16T03:18:58.059Z,993.9
2017-05-16T03:20:00.615Z,993.9
2017-05-16T03:21:02.916Z,993.9
2017-05-16T03:22:05.227Z,993.9
2017-05-16T03:23:07.588Z,993.9
2017-05-16T03:24:09.898Z,993.9
2017-05-16T03:25:12.249Z,994
2017-05-16T03:26:14.590Z,994
2017-05-16T03:27:16.947Z,994
2017-05-16T03:28:19.477Z,994
2017-05-16T03:29:21.865Z,994
2017-05-16T03:30:24.198Z,994.1
2017-05-16T03:31:26.554Z,994.1
2017-05-16T03:32:28.995Z,994
2017-05-16T03:33:31.979Z,994
2017-05-16T03:34:34.289Z,994.1
2017-05-16T03:35:36.736Z,994.1
2017-05-16T03:36:39.099Z,994.1
2017-05-16T03:37:41.441Z,994.1
2017-05-16T03:38:43.741Z,994.1
2017-05-16T03:39:46.066Z,994.1
2017-05-16T03:40:48.395Z,994
2017-05-16T03:41:51.112Z,994.1
2017-05-16T03:42:53.467Z,994.1
2017-05-16T03:43:55.867Z,994.1
2017-05-16T03:44:58.181Z,994
2017-05-16T03:46:00.564Z,994
2017-05-16T03:47:02.984Z,994.1
2017-05-16T03:48:06.039Z,994.1
2017-05-16T03:49:08.387Z,994.1
2017-05-16T03:50:10.736Z,994.1
2017-05-16T03:51:13.286Z,994.1
2017-05-16T03:52:15.666Z,994.1
2017-05-16T03:53:18.001Z,994.1
2017-05-16T03:54:20.301Z,994.2
2017-05-16T03:55:22.673Z,994.2
2017-05-16T03:56:24.988Z,994.1
2017-05-16T03:57:27.326Z,994.2
2017-05-16T03:58:29.681Z,994.2
2017-05-16T03:59:31.999Z,994.2
2017-05-16T04:00:34.346Z,994.2
2017-05-16T04:01:36.702Z,994.2
2017-05-16T04:02:39.028Z,994.2
2017-05-16T04:03:41.396Z,994.2
2017-05-16T04:04:43.743Z,994.2
2017-05-16T04:05:46.060Z,994.2
2017-05-16T04:06:48.398Z,994.2
2017-05-16T04:07:50.868Z,994.2
2017-05-16T04:08:53.263Z,994.2
2017-05-16T04:09:55.597Z,994.2
2017-05-16T04:10:57.954Z,994.2
2017-05-16T04:12:00.407Z,994.2
2017-05-16T04:13:02.737Z,994.2
2017-05-16T04:14:05.032Z,994.3
2017-05-16T04:15:07.388Z,994.2
2017-05-16T04:16:09.740Z,994.2
2017-05-16T04:17:12.129Z,994.2
2017-05-16T04:18:14.465Z,994.2
2017-05-16T04:19:16.779Z,994.3
2017-05-16T04:20:19.097Z,994.2
2017-05-16T04:21:21.401Z,994.2
2017-05-16T04:22:24.789Z,994
2017-05-16T04:23:27.115Z,994.2
2017-05-16T04:24:29.459Z,994.2
2017-05-16T04:25:31.808Z,994.2
2017-05-16T04:26:34.199Z,994.2
2017-05-16T04:27:36.497Z,994.2
2017-05-16T04:28:38.803Z,994.2
2017-05-16T04:29:41.147Z,994.2
2017-05-16T04:30:43.536Z,994.2
2017-05-16T04:31:45.927Z,994.2
2017-05-16T04:32:48.291Z,994.2
2017-05-16T04:33:50.628Z,994.2
2017-05-16T04:34:52.944Z,994.1
2017-05-16T04:35:55.279Z,994.2
2017-05-16T04:36:57.625Z,994.2
2017-05-16T04:38:00.765Z,994.2
2017-05-16T04:39:03.097Z,994.2
2017-05-16T04:40:05.480Z,994.1
2017-05-16T04:41:07.807Z,994.1
2017-05-16T04:42:10.143Z,994.2
2017-05-16T04:43:12.540Z,994.1
2017-05-16T04:44:14.874Z,994.2
2017-05-16T04:45:17.193Z,994.2
2017-05-16T04:46:20.303Z,994.2
2017-05-16T04:47:22.727Z,994.2
2017-05-16T04:48:25.032Z,994.3
2017-05-16T04:49:27.677Z,994.3
2017-05-16T04:50:30.027Z,994.2
2017-05-16T04:51:32.430Z,994.2
2017-05-16T04:52:34.806Z,994.1
2017-05-16T04:53:37.194Z,994.2
2017-05-16T04:54:39.564Z,994.3
2017-05-16T04:55:41.994Z,994.2
2017-05-16T04:56:44.351Z,994.2
2017-05-16T04:57:46.698Z,994.3
2017-05-16T04:58:49.096Z,994.3
2017-05-16T04:59:51.483Z,994.2
2017-05-16T05:00:53.794Z,994.3
2017-05-16T05:01:56.163Z,994.2
2017-05-16T05:02:58.531Z,994.3
2017-05-16T05:04:00.947Z,994.3
2017-05-16T05:05:03.306Z,994.2
2017-05-16T05:06:05.678Z,994.3
2017-05-16T05:07:08.003Z,994.3
2017-05-16T05:08:10.479Z,994.2
2017-05-16T05:09:12.921Z,994.3
2017-05-16T05:10:15.250Z,994.2
2017-05-16T05:11:17.628Z,994.2
2017-05-16T05:12:19.999Z,994.2
2017-05-16T05:13:22.473Z,994.3
2017-05-16T05:14:24.807Z,994.3
2017-05-16T05:15:27.211Z,994.3
2017-05-16T05:16:33.101Z,994.3
2017-05-16T05:17:35.436Z,994.3
2017-05-16T05:18:37.763Z,994.3
2017-05-16T05:19:40.116Z,994.3
2017-05-16T05:20:42.579Z,994.2
2017-05-16T05:21:45.001Z,993.9
2017-05-16T05:22:47.376Z,994.3
2017-05-16T05:23:50.017Z,994.2
2017-05-16T05:24:52.627Z,994.3
2017-05-16T05:25:54.955Z,994.3
2017-05-16T05:26:57.394Z,994.3
2017-05-16T05:27:59.804Z,994.2
2017-05-16T05:29:02.222Z,994.3
2017-05-16T05:30:04.612Z,994.2
2017-05-16T05:31:07.075Z,994.2
2017-05-16T05:32:09.501Z,994.2
2017-05-16T05:33:11.898Z,994.2
2017-05-16T05:34:14.299Z,994.2
2017-05-16T05:35:16.689Z,994.2
2017-05-16T05:36:19.107Z,994.2
2017-05-16T05:37:21.520Z,994.3
2017-05-16T05:38:23.940Z,994.2
2017-05-16T05:39:26.479Z,993.9
2017-05-16T05:40:28.911Z,994.2
2017-05-16T05:41:31.303Z,994.2
2017-05-16T05:42:33.672Z,994.2
2017-05-16T05:43:36.007Z,994.2
2017-05-16T05:44:38.348Z,994.2
2017-05-16T05:45:40.748Z,994.3
2017-05-16T05:46:43.172Z,994.3
2017-05-16T05:47:45.531Z,994.2
2017-05-16T05:48:47.906Z,994.3
2017-05-16T05:49:50.319Z,994.3
2017-05-16T05:50:52.722Z,994
2017-05-16T05:51:55.235Z,994.3
2017-05-16T05:52:57.617Z,994.3
2017-05-16T05:54:00.054Z,994.3
2017-05-16T05:55:02.508Z,994.3
2017-05-16T05:56:04.951Z,994.4
2017-05-16T05:57:07.340Z,994.4
2017-05-16T05:58:09.699Z,994.4
2017-05-16T05:59:12.152Z,994.1
2017-05-16T06:00:14.520Z,994.4
2017-05-16T06:01:16.926Z,994.5
2017-05-16T06:02:19.279Z,994.5
2017-05-16T06:03:21.630Z,994.5
2017-05-16T06:04:23.980Z,994.6
2017-05-16T06:05:26.412Z,994.2
2017-05-16T06:06:28.762Z,994.5
2017-05-16T06:07:31.170Z,994.5
2017-05-16T06:08:33.524Z,994.5
2017-05-16T06:09:35.912Z,994.5
2017-05-16T06:10:38.303Z,994.5
2017-05-16T06:11:40.733Z,994.5
2017-05-16T06:12:43.546Z,994.5
2017-05-16T06:13:45.959Z,994.5
2017-05-16T06:14:48.320Z,994.5
2017-05-16T06:15:50.720Z,994.5
2017-05-16T06:16:53.270Z,994.5
2017-05-16T06:17:55.634Z,994.5
2017-05-16T06:18:57.999Z,994.5
2017-05-16T06:20:00.331Z,994.5
2017-05-16T06:21:02.913Z,994.5
2017-05-16T06:22:05.567Z,994.5
2017-05-16T06:23:07.923Z,994.4
2017-05-16T06:24:10.262Z,994.2
2017-05-16T06:25:12.673Z,994.4
2017-05-16T06:26:15.044Z,994.4
2017-05-16T06:27:17.507Z,994.4
2017-05-16T06:28:19.892Z,994.5
2017-05-16T06:29:22.523Z,994.5
2017-05-16T06:30:24.905Z,994.4
2017-05-16T06:31:27.288Z,994.4
2017-05-16T06:32:29.708Z,994.5
2017-05-16T06:33:32.203Z,994.5
2017-05-16T06:34:34.646Z,994.5
2017-05-16T06:35:37.041Z,994.4
2017-05-16T06:36:39.455Z,994.5
2017-05-16T06:37:42.064Z,994.4
2017-05-16T06:38:44.443Z,994.4
2017-05-16T06:39:46.831Z,994.4
2017-05-16T06:40:49.199Z,994.4
2017-05-16T06:41:51.604Z,994.4
2017-05-16T06:42:54.006Z,994.4
2017-05-16T06:43:56.392Z,994.4
2017-05-16T06:44:58.869Z,994.4
2017-05-16T06:46:01.417Z,994.4
2017-05-16T06:47:03.918Z,994.4
2017-05-16T06:48:06.325Z,994.4
2017-05-16T06:49:08.722Z,994.4
2017-05-16T06:50:11.190Z,994.4
2017-05-16T06:51:16.827Z,994.4
2017-05-16T06:52:19.246Z,994.4
2017-05-16T06:53:21.776Z,994.1
2017-05-16T06:54:24.220Z,994.5
2017-05-16T06:55:26.663Z,994.4
2017-05-16T06:56:29.138Z,994.4
2017-05-16T06:57:31.639Z,994.4
2017-05-16T06:58:34.406Z,994.4
2017-05-16T06:59:36.834Z,994.4
2017-05-16T07:00:39.235Z,994.1
2017-05-16T07:01:41.711Z,994.4
2017-05-16T07:02:44.123Z,994.4
2017-05-16T07:03:46.598Z,994.3
2017-05-16T07:04:49.576Z,994.3
2017-05-16T07:05:52.093Z,994.4
2017-05-16T07:06:54.509Z,994.3
2017-05-16T07:07:56.976Z,994.3
2017-05-16T07:08:59.423Z,994.4
2017-05-16T07:10:01.848Z,994.4
2017-05-16T07:11:04.243Z,994
2017-05-16T07:12:06.620Z,994.3
2017-05-16T07:13:09.068Z,994.3
2017-05-16T07:14:11.531Z,994.3
2017-05-16T07:15:13.903Z,994.3
2017-05-16T07:16:16.366Z,994.3
2017-05-16T07:17:18.872Z,994.4
2017-05-16T07:18:21.481Z,994.1
2017-05-16T07:19:23.902Z,994.1
2017-05-16T07:20:26.365Z,994.3
2017-05-16T07:21:28.755Z,994.3
2017-05-16T07:22:31.948Z,994.3
2017-05-16T07:23:34.387Z,994.3
2017-05-16T07:24:36.842Z,994.3
2017-05-16T07:25:39.225Z,994.3
2017-05-16T07:26:41.831Z,994.3
2017-05-16T07:27:44.200Z,994.3
2017-05-16T07:28:47.183Z,994.3
2017-05-16T07:29:49.836Z,994.3
2017-05-16T07:30:52.325Z,994.4
2017-05-16T07:31:54.778Z,994.3
2017-05-16T07:32:57.374Z,994.3
2017-05-16T07:33:59.801Z,994.3
2017-05-16T07:35:02.268Z,994.2
2017-05-16T07:36:04.692Z,994.3
2017-05-16T07:37:07.049Z,994.2
2017-05-16T07:38:09.427Z,994.2
2017-05-16T07:39:11.889Z,994.2
2017-05-16T07:40:18.580Z,994.3
2017-05-16T07:41:21.051Z,994.2
2017-05-16T07:42:23.818Z,994
2017-05-16T07:43:26.176Z,994.3
2017-05-16T07:44:28.871Z,994.3
2017-05-16T07:45:31.347Z,994.2
2017-05-16T07:46:33.778Z,994.2
2017-05-16T07:47:36.212Z,993.9
2017-05-16T07:48:38.592Z,994.2
2017-05-16T07:49:40.922Z,994
2017-05-16T07:50:43.329Z,994.2
2017-05-16T07:51:45.690Z,994.2
2017-05-16T07:52:48.064Z,994.2
2017-05-16T07:53:50.477Z,994.1
2017-05-16T07:54:52.889Z,994.2
2017-05-16T07:55:55.309Z,993.9
2017-05-16T07:56:58.200Z,994.2
2017-05-16T07:58:00.588Z,994.2
2017-05-16T07:59:03.102Z,994.2
2017-05-16T08:00:05.554Z,994.2
2017-05-16T08:01:07.988Z,994.2
2017-05-16T08:02:10.525Z,994.2
2017-05-16T08:03:13.037Z,994.2
2017-05-16T08:04:15.393Z,994.2
2017-05-16T08:05:17.804Z,993.9
2017-05-16T08:06:20.215Z,994.2
2017-05-16T08:07:22.688Z,994.2
2017-05-16T08:08:25.150Z,994.2
2017-05-16T08:09:28.115Z,994
2017-05-16T08:10:30.448Z,994.2
2017-05-16T08:11:33.047Z,994.2
2017-05-16T08:12:35.473Z,994.2
2017-05-16T08:13:38.167Z,994.2
2017-05-16T08:14:40.650Z,994
2017-05-16T08:15:43.424Z,994.2
2017-05-16T08:16:45.952Z,994.2
2017-05-16T08:17:48.411Z,994.2
2017-05-16T08:18:50.755Z,994.2
2017-05-16T08:19:53.209Z,994.2
2017-05-16T08:20:55.575Z,994.1
2017-05-16T08:21:57.954Z,994.2
2017-05-16T08:23:00.361Z,994.1
2017-05-16T08:24:02.848Z,994.1
2017-05-16T08:25:05.345Z,994.1
2017-05-16T08:26:07.764Z,994.1
2017-05-16T08:27:10.262Z,994.1
2017-05-16T08:28:12.710Z,994.1
2017-05-16T08:29:15.175Z,994.1
2017-05-16T08:30:17.627Z,993.9
2017-05-16T08:31:20.622Z,994.1
2017-05-16T08:32:23.170Z,994.1
2017-05-16T08:33:25.546Z,994.1
2017-05-16T08:34:28.119Z,994.1
2017-05-16T08:35:30.610Z,994.1
2017-05-16T08:36:33.113Z,994.1
2017-05-16T08:37:35.614Z,994.1
2017-05-16T08:38:38.689Z,994.1
2017-05-16T08:39:41.128Z,994.1
2017-05-16T08:40:43.562Z,994.1
2017-05-16T08:41:46.049Z,994
2017-05-16T08:42:48.519Z,994.1
2017-05-16T08:43:50.988Z,994.1
2017-05-16T08:44:53.408Z,994
2017-05-16T08:45:55.732Z,994.1
2017-05-16T08:46:58.163Z,994.1
2017-05-16T08:48:05.027Z,994
2017-05-16T08:49:07.552Z,994
2017-05-16T08:50:09.936Z,994
2017-05-16T08:51:12.374Z,994
2017-05-16T08:52:14.831Z,994.1
2017-05-16T08:53:17.367Z,993.5
2017-05-16T08:54:19.863Z,994.1
2017-05-16T08:55:22.449Z,994.1
2017-05-16T08:56:24.969Z,994
2017-05-16T08:57:27.568Z,994
2017-05-16T08:58:30.199Z,994.1
2017-05-16T08:59:32.791Z,994
2017-05-16T09:00:35.301Z,994.1
2017-05-16T09:01:37.769Z,993.8
2017-05-16T09:02:40.832Z,993.6
2017-05-16T09:03:43.302Z,993.7
2017-05-16T09:04:45.775Z,993.8
2017-05-16T09:05:48.265Z,993.9
2017-05-16T09:06:57.487Z,994
2017-05-16T09:07:59.923Z,993.9
2017-05-16T09:09:06.636Z,993.9
2017-05-16T09:10:09.125Z,993.9
2017-05-16T09:11:11.616Z,993.9
2017-05-16T09:12:14.591Z,993.7
2017-05-16T09:13:25.979Z,993.9
2017-05-16T09:14:29.163Z,994
2017-05-16T09:15:33.542Z,993.9
2017-05-16T09:16:36.011Z,993.9
2017-05-16T09:17:40.779Z,993.9
2017-05-16T09:18:43.755Z,994
2017-05-16T09:19:46.313Z,994
2017-05-16T09:20:48.848Z,994
2017-05-16T09:21:51.270Z,994
2017-05-16T09:22:53.823Z,994
2017-05-16T09:23:56.228Z,994
2017-05-16T09:24:58.762Z,994
2017-05-16T09:26:01.235Z,994
2017-05-16T09:27:03.692Z,994
2017-05-16T09:28:06.090Z,994
2017-05-16T09:29:08.570Z,994
2017-05-16T09:30:11.944Z,994
2017-05-16T09:31:23.432Z,994
2017-05-16T09:32:27.020Z,994
2017-05-16T09:34:29.772Z,993.9
2017-05-16T09:35:32.384Z,993.9
2017-05-16T09:36:34.770Z,993.7
2017-05-16T09:37:37.266Z,993.9
2017-05-16T09:38:39.732Z,993.9
2017-05-16T09:39:44.731Z,993.8
2017-05-16T09:40:47.245Z,993.9
2017-05-16T09:41:49.757Z,993.8
2017-05-16T09:42:52.253Z,993.8
2017-05-16T09:43:55.067Z,993.8
2017-05-16T09:44:57.610Z,993.9
2017-05-16T09:46:00.095Z,993.9
2017-05-16T09:47:03.012Z,993.7
2017-05-16T09:48:05.728Z,993.9
2017-05-16T09:49:08.409Z,993.9
2017-05-16T09:50:10.940Z,993.8
2017-05-16T09:51:13.450Z,993.9
2017-05-16T09:52:15.976Z,993.8
2017-05-16T09:53:18.360Z,993.9
2017-05-16T09:54:20.840Z,993.9
2017-05-16T09:55:23.450Z,993.9
2017-05-16T09:56:25.953Z,993.9
2017-05-16T09:57:28.418Z,993.9
2017-05-16T09:58:30.825Z,993.9
2017-05-16T09:59:33.310Z,993.8
2017-05-16T10:00:35.950Z,993.9
2017-05-16T10:01:38.374Z,993.9
2017-05-16T10:02:41.042Z,993.8
2017-05-16T10:03:43.629Z,993.8
2017-05-16T10:04:46.093Z,993.7
2017-05-16T10:05:48.634Z,993.8
2017-05-16T10:06:51.154Z,993.5
2017-05-16T10:07:53.766Z,993.8
2017-05-16T10:08:56.217Z,993.7
2017-05-16T10:09:58.714Z,993.8
2017-05-16T10:11:01.263Z,993.8
2017-05-16T10:12:03.822Z,993.8
2017-05-16T10:13:07.155Z,993.8
2017-05-16T10:14:09.642Z,993.5
2017-05-16T10:15:12.359Z,993.8
2017-05-16T10:16:21.652Z,993.7
2017-05-16T10:17:24.311Z,993.5
2017-05-16T10:18:26.759Z,993.8
2017-05-16T10:19:29.773Z,993.8
2017-05-16T10:20:32.526Z,993.8
2017-05-16T10:21:34.998Z,993.8
2017-05-16T10:22:37.536Z,993.8
2017-05-16T10:23:39.980Z,993.7
2017-05-16T10:24:42.745Z,993.7
2017-05-16T10:25:45.262Z,993.5
2017-05-16T10:26:47.848Z,993.7
2017-05-16T10:27:50.304Z,993.6
2017-05-16T10:28:53.049Z,993.7
2017-05-16T10:29:55.660Z,993.7
2017-05-16T10:30:58.160Z,993.7
2017-05-16T10:32:00.805Z,993.6
2017-05-16T10:33:03.716Z,993.6
2017-05-16T10:34:06.255Z,993.5
2017-05-16T10:35:08.887Z,993.4
2017-05-16T10:37:11.703Z,993.5
2017-05-16T10:38:14.236Z,993.5
2017-05-16T10:39:17.970Z,993.5
2017-05-16T10:40:20.456Z,993.5
2017-05-16T10:41:23.034Z,993.6
2017-05-16T10:42:26.084Z,993.5
2017-05-16T10:43:28.959Z,993.6
2017-05-16T10:44:31.589Z,993.5
2017-05-16T10:45:34.232Z,993.5
2017-05-16T10:46:36.749Z,993.5
2017-05-16T10:47:39.391Z,993.5
2017-05-16T10:48:42.023Z,993.6
2017-05-16T10:49:44.517Z,993.5
2017-05-16T10:50:48.199Z,993.6
2017-05-16T10:51:50.753Z,993.5
2017-05-16T10:52:53.477Z,993.5
2017-05-16T10:53:55.886Z,993.5
2017-05-16T10:54:58.353Z,993.5
2017-05-16T10:56:00.807Z,993.5
2017-05-16T10:57:03.589Z,993.4
2017-05-16T10:58:07.238Z,993.5
2017-05-16T10:59:09.787Z,993.4
2017-05-16T11:00:12.435Z,993.4
2017-05-16T11:01:14.933Z,993.4
2017-05-16T11:02:17.506Z,993.2
2017-05-16T11:03:20.178Z,993.3
2017-05-16T11:04:22.737Z,993.4
2017-05-16T11:05:25.206Z,993.4
2017-05-16T11:06:27.767Z,993.3
2017-05-16T11:07:30.306Z,993.3
2017-05-16T11:08:32.836Z,993.4
2017-05-16T11:09:35.398Z,993.4
2017-05-16T11:10:38.080Z,993
2017-05-16T11:11:40.736Z,993.4
2017-05-16T11:12:43.376Z,993.4
2017-05-16T11:13:45.954Z,993.3
2017-05-16T11:14:48.524Z,993.4
2017-05-16T11:15:51.256Z,993.2
2017-05-16T11:16:53.932Z,993.4
2017-05-16T11:17:56.486Z,993.3
2017-05-16T11:18:59.056Z,993.4
2017-05-16T11:20:01.594Z,993.3
2017-05-16T11:21:04.135Z,993.3
2017-05-16T11:22:15.561Z,993.4
2017-05-16T11:23:18.032Z,993.3
2017-05-16T11:24:21.300Z,993.3
2017-05-16T11:25:24.122Z,993.3
2017-05-16T11:26:32.960Z,993.3
2017-05-16T11:27:45.504Z,993.2
2017-05-16T11:28:50.209Z,993
2017-05-16T11:29:54.517Z,993.2
2017-05-16T11:30:57.000Z,993.2
2017-05-16T11:32:04.635Z,993.3
2017-05-16T11:33:07.210Z,993.2
2017-05-16T11:34:09.668Z,993.2
2017-05-16T11:35:12.298Z,993.2
2017-05-16T11:36:14.811Z,993.2
2017-05-16T11:37:20.617Z,993.3
2017-05-16T11:38:23.175Z,993.2
2017-05-16T11:39:25.629Z,993.3
2017-05-16T11:40:28.259Z,993.2
2017-05-16T11:41:30.859Z,993.3
2017-05-16T11:42:33.548Z,993.1
2017-05-16T11:43:36.004Z,993.3
2017-05-16T11:44:39.062Z,993.3
2017-05-16T11:45:41.650Z,993.3
2017-05-16T11:46:44.196Z,993.3
2017-05-16T11:47:46.716Z,993.2
2017-05-16T11:48:49.360Z,993.3
2017-05-16T11:49:51.880Z,993.2
2017-05-16T11:50:54.573Z,993.2
2017-05-16T11:51:56.959Z,993.2
2017-05-16T11:52:59.546Z,993.2
2017-05-16T11:54:02.152Z,993.2
2017-05-16T11:55:04.763Z,993.2
2017-05-16T11:56:07.230Z,993.2
2017-05-16T11:57:09.681Z,993.1
2017-05-16T11:58:12.319Z,993.2
2017-05-16T11:59:14.866Z,993.2
2017-05-16T12:00:17.353Z,993.1
2017-05-16T12:01:19.817Z,993
2017-05-16T12:02:22.467Z,993.1
2017-05-16T12:03:24.949Z,993.1
2017-05-16T12:04:27.421Z,993.1
2017-05-16T12:05:29.991Z,993
2017-05-16T12:06:33.201Z,993
2017-05-16T12:07:35.727Z,993
2017-05-16T12:08:38.199Z,993
2017-05-16T12:09:41.071Z,993
2017-05-16T12:10:43.627Z,993.1
2017-05-16T12:11:46.070Z,993
2017-05-16T12:12:49.012Z,993
2017-05-16T12:13:51.500Z,993
2017-05-16T12:14:54.272Z,992.9
2017-05-16T12:15:56.763Z,992.8
2017-05-16T12:16:59.690Z,993
2017-05-16T12:18:02.275Z,992.7
2017-05-16T12:19:04.720Z,992.9
2017-05-16T12:20:07.252Z,992.9
2017-05-16T12:21:09.732Z,993
2017-05-16T12:22:12.216Z,992.9
2017-05-16T12:23:14.740Z,992.9
2017-05-16T12:24:17.207Z,992.9
2017-05-16T12:25:19.697Z,992.6
2017-05-16T12:26:22.184Z,992.9
2017-05-16T12:27:24.985Z,992.9
2017-05-16T12:28:27.493Z,992.9
2017-05-16T12:29:30.156Z,992.8
2017-05-16T12:30:32.841Z,992.8
2017-05-16T12:31:35.422Z,992.8
2017-05-16T12:32:37.916Z,992.6
2017-05-16T12:33:40.483Z,992.8
2017-05-16T12:34:43.097Z,992.7
2017-05-16T12:35:45.646Z,992.8
2017-05-16T12:36:48.322Z,992.7
2017-05-16T12:37:50.787Z,992.8
2017-05-16T12:38:53.877Z,992.8
2017-05-16T12:39:56.298Z,992.6
2017-05-16T12:40:58.869Z,992.7
2017-05-16T12:42:01.329Z,992.7
2017-05-16T12:43:03.859Z,992.6
2017-05-16T12:44:06.385Z,992.6
2017-05-16T12:45:08.781Z,992.6
2017-05-16T12:46:11.326Z,992.7
2017-05-16T12:47:13.825Z,992.7
2017-05-16T12:48:16.300Z,992.7
2017-05-16T12:49:18.892Z,992.7
2017-05-16T12:50:21.353Z,992.7
2017-05-16T12:51:24.004Z,992.7
2017-05-16T12:52:26.539Z,992.6
2017-05-16T12:53:28.947Z,992.6
2017-05-16T12:54:31.991Z,992.6
2017-05-16T12:55:34.609Z,992.6
2017-05-16T12:56:37.147Z,992.6
2017-05-16T12:57:39.656Z,992.6
2017-05-16T12:58:42.120Z,992.6
2017-05-16T12:59:45.371Z,992.6
2017-05-16T13:00:47.975Z,992.6
2017-05-16T13:01:50.550Z,992.6
2017-05-16T13:02:52.968Z,992.5
2017-05-16T13:03:55.789Z,992.6
2017-05-16T13:04:58.782Z,992.5
2017-05-16T13:06:01.592Z,992.6
2017-05-16T13:07:04.209Z,992.5
2017-05-16T13:08:06.724Z,992.5
2017-05-16T13:09:09.205Z,992.5
2017-05-16T13:10:11.759Z,992.3
2017-05-16T13:11:14.397Z,992.6
2017-05-16T13:12:16.871Z,992.6
2017-05-16T13:13:19.527Z,992.5
2017-05-16T13:14:22.044Z,992.5
2017-05-16T13:15:25.380Z,992.5
2017-05-16T13:16:27.855Z,992.4
2017-05-16T13:17:30.799Z,992.2
2017-05-16T13:18:33.213Z,992.4
2017-05-16T13:19:35.764Z,992.5
2017-05-16T13:20:38.306Z,992.4
2017-05-16T13:21:41.144Z,992.4
2017-05-16T13:22:44.425Z,992.4
2017-05-16T13:23:46.859Z,992.2
2017-05-16T13:24:49.451Z,992.2
2017-05-16T13:25:51.965Z,992.4
2017-05-16T13:26:54.536Z,992.4
2017-05-16T13:27:57.155Z,992.4
2017-05-16T13:28:59.677Z,992.4
2017-05-16T13:30:02.171Z,992.4
2017-05-16T13:31:04.865Z,992.4
2017-05-16T13:32:07.399Z,992.4
2017-05-16T13:33:09.949Z,992.1
2017-05-16T13:34:12.432Z,992.3
2017-05-16T13:35:14.928Z,992.4
2017-05-16T13:36:17.509Z,992.3
2017-05-16T13:37:19.990Z,992.4